sensor_id;sensor_type;location;lat;lon;timestamp;P1;durP1;ratioP1;P2;durP2;ratioP2
32323;SDS011;25666;44.350;9.222;2023-03-31T00:01:03;17.30;;;4.40;;
32323;SDS011;25666;44.350;9.222;2023-03-31T00:03:29;12.23;;;2.60;;
32323;SDS011;25666;44.350;9.222;2023-03-31T00:05:58;14.07;;;3.53;;
32323;SDS011;25666;44.350;9.222;2023-03-31T00:08:28;13.65;;;2.72;;
32323;SDS011;25666;44.350;9.222;2023-03-31T00:10:59;14.82;;;3.83;;
32323;SDS011;25666;44.350;9.222;2023-03-31T00:13:27;10.43;;;2.25;;
32323;SDS011;25666;44.350;9.222;2023-03-31T00:16:00;11.88;;;2.80;;
32323;SDS011;25666;44.350;9.222;2023-03-31T00:18:28;19.67;;;3.35;;
32323;SDS011;25666;44.350;9.222;2023-03-31T00:20:54;12.95;;;3.05;;
32323;SDS011;25666;44.350;9.222;2023-03-31T00:23:21;7.38;;;3.28;;
32323;SDS011;25666;44.350;9.222;2023-03-31T00:25:52;15.43;;;3.05;;
32323;SDS011;25666;44.350;9.222;2023-03-31T00:28:18;10.52;;;2.15;;
32323;SDS011;25666;44.350;9.222;2023-03-31T00:30:44;22.15;;;2.70;;
32323;SDS011;25666;44.350;9.222;2023-03-31T00:33:11;13.25;;;3.17;;
32323;SDS011;25666;44.350;9.222;2023-03-31T00:35:37;16.33;;;2.95;;
32323;SDS011;25666;44.350;9.222;2023-03-31T00:38:03;13.98;;;2.50;;
32323;SDS011;25666;44.350;9.222;2023-03-31T00:40:30;9.25;;;2.45;;
32323;SDS011;25666;44.350;9.222;2023-03-31T00:42:56;12.63;;;2.35;;
32323;SDS011;25666;44.350;9.222;2023-03-31T00:45:25;10.02;;;2.90;;
32323;SDS011;25666;44.350;9.222;2023-03-31T00:47:54;25.38;;;3.17;;
32323;SDS011;25666;44.350;9.222;2023-03-31T00:50:31;21.50;;;3.67;;
32323;SDS011;25666;44.350;9.222;2023-03-31T00:53:09;14.13;;;2.55;;
32323;SDS011;25666;44.350;9.222;2023-03-31T00:55:45;13.68;;;3.63;;
32323;SDS011;25666;44.350;9.222;2023-03-31T00:58:15;9.32;;;2.75;;
32323;SDS011;25666;44.350;9.222;2023-03-31T01:00:47;17.48;;;3.35;;
32323;SDS011;25666;44.350;9.222;2023-03-31T01:03:17;17.58;;;3.78;;
32323;SDS011;25666;44.350;9.222;2023-03-31T01:06:07;16.38;;;3.58;;
32323;SDS011;25666;44.350;9.222;2023-03-31T01:08:34;16.60;;;3.30;;
32323;SDS011;25666;44.350;9.222;2023-03-31T01:11:05;20.77;;;3.30;;
32323;SDS011;25666;44.350;9.222;2023-03-31T01:13:34;12.85;;;2.30;;
32323;SDS011;25666;44.350;9.222;2023-03-31T01:16:01;14.60;;;3.05;;
32323;SDS011;25666;44.350;9.222;2023-03-31T01:18:27;13.63;;;3.22;;
32323;SDS011;25666;44.350;9.222;2023-03-31T01:26:48;14.93;;;2.65;;
32323;SDS011;25666;44.350;9.222;2023-03-31T01:43:25;13.68;;;4.07;;
32323;SDS011;25666;44.350;9.222;2023-03-31T01:46:09;21.35;;;4.30;;
32323;SDS011;25666;44.350;9.222;2023-03-31T01:54:16;16.90;;;3.97;;
32323;SDS011;25666;44.350;9.222;2023-03-31T01:56:54;21.27;;;4.20;;
32323;SDS011;25666;44.350;9.222;2023-03-31T01:59:32;7.82;;;3.05;;
32323;SDS011;25666;44.350;9.222;2023-03-31T02:02:06;16.83;;;4.13;;
32323;SDS011;25666;44.350;9.222;2023-03-31T02:04:39;14.90;;;3.55;;
32323;SDS011;25666;44.350;9.222;2023-03-31T02:07:17;13.35;;;3.70;;
32323;SDS011;25666;44.350;9.222;2023-03-31T02:09:48;20.50;;;3.47;;
32323;SDS011;25666;44.350;9.222;2023-03-31T02:12:17;20.75;;;3.70;;
32323;SDS011;25666;44.350;9.222;2023-03-31T02:14:46;12.07;;;3.22;;
32323;SDS011;25666;44.350;9.222;2023-03-31T02:17:17;9.82;;;2.80;;
32323;SDS011;25666;44.350;9.222;2023-03-31T02:19:47;12.27;;;3.60;;
32323;SDS011;25666;44.350;9.222;2023-03-31T02:22:15;12.52;;;2.92;;
32323;SDS011;25666;44.350;9.222;2023-03-31T02:24:46;14.32;;;3.53;;
32323;SDS011;25666;44.350;9.222;2023-03-31T02:29:47;15.20;;;3.33;;
32323;SDS011;25666;44.350;9.222;2023-03-31T02:34:57;16.27;;;2.95;;
32323;SDS011;25666;44.350;9.222;2023-03-31T02:37:24;22.70;;;3.08;;
32323;SDS011;25666;44.350;9.222;2023-03-31T02:39:51;14.82;;;3.05;;
32323;SDS011;25666;44.350;9.222;2023-03-31T02:42:19;17.15;;;3.70;;
32323;SDS011;25666;44.350;9.222;2023-03-31T02:44:50;17.40;;;3.65;;
32323;SDS011;25666;44.350;9.222;2023-03-31T02:47:17;23.25;;;3.88;;
32323;SDS011;25666;44.350;9.222;2023-03-31T02:49:47;18.75;;;3.45;;
32323;SDS011;25666;44.350;9.222;2023-03-31T02:58:17;15.38;;;3.95;;
32323;SDS011;25666;44.350;9.222;2023-03-31T03:09:26;30.07;;;4.00;;
32323;SDS011;25666;44.350;9.222;2023-03-31T03:17:43;14.63;;;3.50;;
32323;SDS011;25666;44.350;9.222;2023-03-31T03:20:12;16.73;;;4.63;;
32323;SDS011;25666;44.350;9.222;2023-03-31T03:22:38;14.85;;;3.10;;
32323;SDS011;25666;44.350;9.222;2023-03-31T03:25:08;20.85;;;3.70;;
32323;SDS011;25666;44.350;9.222;2023-03-31T03:27:36;14.65;;;3.70;;
32323;SDS011;25666;44.350;9.222;2023-03-31T03:30:02;15.27;;;2.97;;
32323;SDS011;25666;44.350;9.222;2023-03-31T03:32:30;21.13;;;3.83;;
32323;SDS011;25666;44.350;9.222;2023-03-31T03:34:58;18.10;;;4.45;;
32323;SDS011;25666;44.350;9.222;2023-03-31T03:37:24;15.35;;;3.50;;
32323;SDS011;25666;44.350;9.222;2023-03-31T03:39:49;15.43;;;3.40;;
32323;SDS011;25666;44.350;9.222;2023-03-31T03:42:15;25.13;;;4.28;;
32323;SDS011;25666;44.350;9.222;2023-03-31T03:44:41;16.42;;;4.10;;
32323;SDS011;25666;44.350;9.222;2023-03-31T03:47:06;9.80;;;3.65;;
32323;SDS011;25666;44.350;9.222;2023-03-31T03:49:32;29.80;;;3.67;;
32323;SDS011;25666;44.350;9.222;2023-03-31T03:51:57;20.98;;;3.65;;
32323;SDS011;25666;44.350;9.222;2023-03-31T03:54:23;20.73;;;3.50;;
32323;SDS011;25666;44.350;9.222;2023-03-31T03:56:48;19.88;;;4.10;;
32323;SDS011;25666;44.350;9.222;2023-03-31T03:59:13;21.90;;;3.50;;
32323;SDS011;25666;44.350;9.222;2023-03-31T04:01:39;22.00;;;4.00;;
32323;SDS011;25666;44.350;9.222;2023-03-31T04:04:04;16.83;;;3.88;;
32323;SDS011;25666;44.350;9.222;2023-03-31T04:06:30;17.92;;;3.65;;
32323;SDS011;25666;44.350;9.222;2023-03-31T04:08:55;22.75;;;4.55;;
32323;SDS011;25666;44.350;9.222;2023-03-31T04:11:21;27.67;;;3.67;;
32323;SDS011;25666;44.350;9.222;2023-03-31T04:13:47;13.18;;;3.10;;
32323;SDS011;25666;44.350;9.222;2023-03-31T04:16:12;19.90;;;3.67;;
32323;SDS011;25666;44.350;9.222;2023-03-31T04:18:38;31.98;;;4.63;;
32323;SDS011;25666;44.350;9.222;2023-03-31T04:21:10;10.90;;;3.03;;
32323;SDS011;25666;44.350;9.222;2023-03-31T04:23:40;11.80;;;3.13;;
32323;SDS011;25666;44.350;9.222;2023-03-31T04:26:13;13.70;;;3.28;;
32323;SDS011;25666;44.350;9.222;2023-03-31T04:28:40;23.30;;;4.72;;
32323;SDS011;25666;44.350;9.222;2023-03-31T04:31:10;15.15;;;3.20;;
32323;SDS011;25666;44.350;9.222;2023-03-31T04:33:39;21.63;;;3.65;;
32323;SDS011;25666;44.350;9.222;2023-03-31T04:36:06;31.23;;;3.88;;
32323;SDS011;25666;44.350;9.222;2023-03-31T04:38:45;22.95;;;3.67;;
32323;SDS011;25666;44.350;9.222;2023-03-31T04:41:15;15.90;;;3.45;;
32323;SDS011;25666;44.350;9.222;2023-03-31T04:43:41;13.65;;;3.78;;
32323;SDS011;25666;44.350;9.222;2023-03-31T04:46:07;11.30;;;3.80;;
32323;SDS011;25666;44.350;9.222;2023-03-31T04:48:32;16.08;;;5.40;;
32323;SDS011;25666;44.350;9.222;2023-03-31T04:50:58;18.15;;;4.35;;
32323;SDS011;25666;44.350;9.222;2023-03-31T04:53:23;14.82;;;3.40;;
32323;SDS011;25666;44.350;9.222;2023-03-31T04:56:07;25.42;;;4.47;;
32323;SDS011;25666;44.350;9.222;2023-03-31T04:58:36;20.60;;;3.53;;
32323;SDS011;25666;44.350;9.222;2023-03-31T05:01:02;14.30;;;4.22;;
32323;SDS011;25666;44.350;9.222;2023-03-31T05:03:31;17.48;;;4.15;;
32323;SDS011;25666;44.350;9.222;2023-03-31T05:05:58;16.60;;;4.45;;
32323;SDS011;25666;44.350;9.222;2023-03-31T05:08:24;27.48;;;4.30;;
32323;SDS011;25666;44.350;9.222;2023-03-31T05:10:51;18.33;;;4.85;;
32323;SDS011;25666;44.350;9.222;2023-03-31T05:13:16;36.28;;;4.63;;
32323;SDS011;25666;44.350;9.222;2023-03-31T05:15:42;17.92;;;3.92;;
32323;SDS011;25666;44.350;9.222;2023-03-31T05:18:09;26.92;;;4.30;;
32323;SDS011;25666;44.350;9.222;2023-03-31T05:20:35;15.48;;;3.53;;
32323;SDS011;25666;44.350;9.222;2023-03-31T05:23:00;20.58;;;4.15;;
32323;SDS011;25666;44.350;9.222;2023-03-31T05:25:26;17.00;;;3.67;;
32323;SDS011;25666;44.350;9.222;2023-03-31T05:27:56;12.95;;;3.95;;
32323;SDS011;25666;44.350;9.222;2023-03-31T05:30:22;19.77;;;4.85;;
32323;SDS011;25666;44.350;9.222;2023-03-31T05:32:50;27.20;;;4.25;;
32323;SDS011;25666;44.350;9.222;2023-03-31T05:35:16;10.85;;;3.45;;
32323;SDS011;25666;44.350;9.222;2023-03-31T05:37:41;17.20;;;5.25;;
32323;SDS011;25666;44.350;9.222;2023-03-31T05:40:07;19.75;;;3.92;;
32323;SDS011;25666;44.350;9.222;2023-03-31T05:42:33;21.58;;;4.82;;
32323;SDS011;25666;44.350;9.222;2023-03-31T05:44:59;22.27;;;4.90;;
32323;SDS011;25666;44.350;9.222;2023-03-31T05:47:24;16.08;;;3.50;;
32323;SDS011;25666;44.350;9.222;2023-03-31T05:49:50;11.35;;;4.00;;
32323;SDS011;25666;44.350;9.222;2023-03-31T05:52:16;23.02;;;4.38;;
32323;SDS011;25666;44.350;9.222;2023-03-31T05:54:41;23.63;;;5.75;;
32323;SDS011;25666;44.350;9.222;2023-03-31T05:57:08;11.68;;;4.32;;
32323;SDS011;25666;44.350;9.222;2023-03-31T05:59:34;30.83;;;4.53;;
32323;SDS011;25666;44.350;9.222;2023-03-31T06:02:00;24.75;;;5.03;;
32323;SDS011;25666;44.350;9.222;2023-03-31T06:04:29;18.45;;;4.00;;
32323;SDS011;25666;44.350;9.222;2023-03-31T06:06:58;22.27;;;4.15;;
32323;SDS011;25666;44.350;9.222;2023-03-31T06:09:24;30.08;;;4.47;;
32323;SDS011;25666;44.350;9.222;2023-03-31T06:11:50;31.55;;;5.78;;
32323;SDS011;25666;44.350;9.222;2023-03-31T06:14:16;19.70;;;4.82;;
32323;SDS011;25666;44.350;9.222;2023-03-31T06:16:42;37.70;;;6.53;;
32323;SDS011;25666;44.350;9.222;2023-03-31T06:19:07;29.52;;;4.72;;
32323;SDS011;25666;44.350;9.222;2023-03-31T06:21:33;26.25;;;5.10;;
32323;SDS011;25666;44.350;9.222;2023-03-31T06:23:59;29.13;;;5.55;;
32323;SDS011;25666;44.350;9.222;2023-03-31T06:26:25;19.20;;;3.70;;
32323;SDS011;25666;44.350;9.222;2023-03-31T06:28:51;18.75;;;3.58;;
32323;SDS011;25666;44.350;9.222;2023-03-31T06:31:18;21.58;;;4.45;;
32323;SDS011;25666;44.350;9.222;2023-03-31T06:33:45;29.00;;;4.82;;
32323;SDS011;25666;44.350;9.222;2023-03-31T06:36:12;18.55;;;4.85;;
32323;SDS011;25666;44.350;9.222;2023-03-31T06:38:39;28.48;;;4.45;;
32323;SDS011;25666;44.350;9.222;2023-03-31T06:41:05;24.83;;;4.75;;
32323;SDS011;25666;44.350;9.222;2023-03-31T06:43:33;17.05;;;4.55;;
32323;SDS011;25666;44.350;9.222;2023-03-31T06:45:59;27.60;;;4.93;;
32323;SDS011;25666;44.350;9.222;2023-03-31T06:48:24;28.08;;;4.93;;
32323;SDS011;25666;44.350;9.222;2023-03-31T06:50:54;22.60;;;5.43;;
32323;SDS011;25666;44.350;9.222;2023-03-31T06:53:25;22.90;;;5.18;;
32323;SDS011;25666;44.350;9.222;2023-03-31T06:55:51;22.65;;;5.65;;
32323;SDS011;25666;44.350;9.222;2023-03-31T06:58:17;18.45;;;4.65;;
32323;SDS011;25666;44.350;9.222;2023-03-31T07:00:42;30.67;;;5.07;;
32323;SDS011;25666;44.350;9.222;2023-03-31T07:03:10;28.63;;;4.50;;
32323;SDS011;25666;44.350;9.222;2023-03-31T07:05:36;16.50;;;4.28;;
32323;SDS011;25666;44.350;9.222;2023-03-31T07:08:02;27.75;;;4.28;;
32323;SDS011;25666;44.350;9.222;2023-03-31T07:10:28;32.03;;;5.10;;
32323;SDS011;25666;44.350;9.222;2023-03-31T07:12:55;19.90;;;4.38;;
32323;SDS011;25666;44.350;9.222;2023-03-31T07:15:20;26.33;;;4.72;;
32323;SDS011;25666;44.350;9.222;2023-03-31T07:17:47;19.90;;;3.90;;
32323;SDS011;25666;44.350;9.222;2023-03-31T07:20:15;16.60;;;3.83;;
32323;SDS011;25666;44.350;9.222;2023-03-31T07:22:46;19.95;;;5.22;;
32323;SDS011;25666;44.350;9.222;2023-03-31T07:25:14;18.38;;;4.30;;
32323;SDS011;25666;44.350;9.222;2023-03-31T07:27:41;22.48;;;4.10;;
32323;SDS011;25666;44.350;9.222;2023-03-31T07:30:08;22.52;;;4.97;;
32323;SDS011;25666;44.350;9.222;2023-03-31T07:32:38;17.93;;;4.83;;
32323;SDS011;25666;44.350;9.222;2023-03-31T07:35:09;20.10;;;4.68;;
32323;SDS011;25666;44.350;9.222;2023-03-31T07:37:39;17.83;;;6.00;;
32323;SDS011;25666;44.350;9.222;2023-03-31T07:40:08;27.20;;;6.18;;
32323;SDS011;25666;44.350;9.222;2023-03-31T07:42:37;20.80;;;4.60;;
32323;SDS011;25666;44.350;9.222;2023-03-31T07:45:02;17.75;;;4.10;;
32323;SDS011;25666;44.350;9.222;2023-03-31T07:47:31;20.00;;;4.47;;
32323;SDS011;25666;44.350;9.222;2023-03-31T07:49:57;27.40;;;5.05;;
32323;SDS011;25666;44.350;9.222;2023-03-31T07:52:22;16.80;;;3.78;;
32323;SDS011;25666;44.350;9.222;2023-03-31T07:54:48;21.60;;;4.18;;
32323;SDS011;25666;44.350;9.222;2023-03-31T07:57:14;14.32;;;4.70;;
32323;SDS011;25666;44.350;9.222;2023-03-31T07:59:41;25.10;;;5.18;;
32323;SDS011;25666;44.350;9.222;2023-03-31T08:02:09;22.52;;;5.18;;
32323;SDS011;25666;44.350;9.222;2023-03-31T08:04:37;22.75;;;4.50;;
32323;SDS011;25666;44.350;9.222;2023-03-31T08:07:03;24.23;;;4.53;;
32323;SDS011;25666;44.350;9.222;2023-03-31T08:09:29;24.63;;;4.85;;
32323;SDS011;25666;44.350;9.222;2023-03-31T08:11:54;27.73;;;4.22;;
32323;SDS011;25666;44.350;9.222;2023-03-31T08:14:20;14.57;;;3.47;;
32323;SDS011;25666;44.350;9.222;2023-03-31T08:16:47;22.13;;;4.70;;
32323;SDS011;25666;44.350;9.222;2023-03-31T08:19:13;26.25;;;5.63;;
32323;SDS011;25666;44.350;9.222;2023-03-31T08:21:39;23.02;;;3.92;;
32323;SDS011;25666;44.350;9.222;2023-03-31T08:24:05;15.90;;;4.25;;
32323;SDS011;25666;44.350;9.222;2023-03-31T08:26:30;23.52;;;5.65;;
32323;SDS011;25666;44.350;9.222;2023-03-31T08:28:57;29.48;;;5.75;;
32323;SDS011;25666;44.350;9.222;2023-03-31T08:31:24;18.95;;;5.63;;
32323;SDS011;25666;44.350;9.222;2023-03-31T08:33:50;32.38;;;5.57;;
32323;SDS011;25666;44.350;9.222;2023-03-31T08:36:15;21.92;;;5.00;;
32323;SDS011;25666;44.350;9.222;2023-03-31T08:38:41;19.15;;;5.80;;
32323;SDS011;25666;44.350;9.222;2023-03-31T08:44:15;18.77;;;4.72;;
32323;SDS011;25666;44.350;9.222;2023-03-31T08:46:47;18.50;;;5.05;;
32323;SDS011;25666;44.350;9.222;2023-03-31T08:49:16;23.85;;;4.57;;
32323;SDS011;25666;44.350;9.222;2023-03-31T08:51:49;14.18;;;2.88;;
32323;SDS011;25666;44.350;9.222;2023-03-31T08:57:01;20.80;;;4.68;;
32323;SDS011;25666;44.350;9.222;2023-03-31T08:59:31;18.65;;;4.53;;
32323;SDS011;25666;44.350;9.222;2023-03-31T09:15:08;14.98;;;3.65;;
32323;SDS011;25666;44.350;9.222;2023-03-31T09:17:38;17.90;;;4.68;;
32323;SDS011;25666;44.350;9.222;2023-03-31T09:22:44;15.82;;;4.38;;
32323;SDS011;25666;44.350;9.222;2023-03-31T09:25:15;18.17;;;4.88;;
32323;SDS011;25666;44.350;9.222;2023-03-31T09:27:45;19.90;;;4.28;;
32323;SDS011;25666;44.350;9.222;2023-03-31T09:30:31;15.00;;;4.15;;
32323;SDS011;25666;44.350;9.222;2023-03-31T09:33:10;21.45;;;4.00;;
32323;SDS011;25666;44.350;9.222;2023-03-31T09:35:39;25.17;;;5.28;;
32323;SDS011;25666;44.350;9.222;2023-03-31T09:38:05;21.45;;;3.85;;
32323;SDS011;25666;44.350;9.222;2023-03-31T09:40:31;24.45;;;4.68;;
32323;SDS011;25666;44.350;9.222;2023-03-31T09:42:59;19.15;;;4.43;;
32323;SDS011;25666;44.350;9.222;2023-03-31T09:45:33;30.25;;;5.25;;
32323;SDS011;25666;44.350;9.222;2023-03-31T09:48:00;29.55;;;5.85;;
32323;SDS011;25666;44.350;9.222;2023-03-31T09:50:35;23.73;;;4.10;;
32323;SDS011;25666;44.350;9.222;2023-03-31T09:53:10;21.83;;;5.80;;
32323;SDS011;25666;44.350;9.222;2023-03-31T09:55:53;30.15;;;5.18;;
32323;SDS011;25666;44.350;9.222;2023-03-31T09:58:21;25.67;;;4.85;;
32323;SDS011;25666;44.350;9.222;2023-03-31T10:01:22;20.77;;;4.68;;
32323;SDS011;25666;44.350;9.222;2023-03-31T10:03:43;26.88;;;5.68;;
32323;SDS011;25666;44.350;9.222;2023-03-31T10:06:18;26.38;;;5.47;;
32323;SDS011;25666;44.350;9.222;2023-03-31T10:11:10;31.88;;;6.75;;
32323;SDS011;25666;44.350;9.222;2023-03-31T10:13:42;18.90;;;4.55;;
32323;SDS011;25666;44.350;9.222;2023-03-31T10:16:12;18.75;;;4.43;;
32323;SDS011;25666;44.350;9.222;2023-03-31T10:18:40;20.40;;;4.88;;
32323;SDS011;25666;44.350;9.222;2023-03-31T10:21:20;23.65;;;4.97;;
32323;SDS011;25666;44.350;9.222;2023-03-31T10:23:51;16.80;;;3.83;;
32323;SDS011;25666;44.350;9.222;2023-03-31T10:26:21;20.52;;;4.13;;
32323;SDS011;25666;44.350;9.222;2023-03-31T10:28:50;22.20;;;4.32;;
32323;SDS011;25666;44.350;9.222;2023-03-31T10:31:19;17.58;;;4.40;;
32323;SDS011;25666;44.350;9.222;2023-03-31T10:33:48;16.38;;;4.65;;
32323;SDS011;25666;44.350;9.222;2023-03-31T10:38:46;24.85;;;4.80;;
32323;SDS011;25666;44.350;9.222;2023-03-31T10:41:47;17.15;;;4.30;;
32323;SDS011;25666;44.350;9.222;2023-03-31T10:44:06;14.57;;;4.80;;
32323;SDS011;25666;44.350;9.222;2023-03-31T10:46:51;14.07;;;4.63;;
32323;SDS011;25666;44.350;9.222;2023-03-31T10:49:26;9.10;;;3.20;;
32323;SDS011;25666;44.350;9.222;2023-03-31T10:51:55;17.60;;;3.55;;
32323;SDS011;25666;44.350;9.222;2023-03-31T10:54:22;20.55;;;4.05;;
32323;SDS011;25666;44.350;9.222;2023-03-31T10:56:51;18.88;;;4.15;;
32323;SDS011;25666;44.350;9.222;2023-03-31T11:00:05;19.83;;;4.07;;
32323;SDS011;25666;44.350;9.222;2023-03-31T11:02:34;25.77;;;5.47;;
32323;SDS011;25666;44.350;9.222;2023-03-31T11:13:36;20.05;;;4.40;;
32323;SDS011;25666;44.350;9.222;2023-03-31T11:21:51;16.45;;;3.97;;
32323;SDS011;25666;44.350;9.222;2023-03-31T11:27:26;19.80;;;4.85;;
32323;SDS011;25666;44.350;9.222;2023-03-31T11:30:04;15.23;;;3.80;;
32323;SDS011;25666;44.350;9.222;2023-03-31T11:32:42;13.55;;;3.72;;
32323;SDS011;25666;44.350;9.222;2023-03-31T11:41:18;14.32;;;4.28;;
32323;SDS011;25666;44.350;9.222;2023-03-31T11:43:54;13.65;;;5.30;;
32323;SDS011;25666;44.350;9.222;2023-03-31T11:46:35;11.25;;;3.22;;
32323;SDS011;25666;44.350;9.222;2023-03-31T11:49:23;9.93;;;3.75;;
32323;SDS011;25666;44.350;9.222;2023-03-31T11:51:56;19.88;;;4.35;;
32323;SDS011;25666;44.350;9.222;2023-03-31T11:54:45;12.38;;;4.32;;
32323;SDS011;25666;44.350;9.222;2023-03-31T11:57:24;20.40;;;4.53;;
32323;SDS011;25666;44.350;9.222;2023-03-31T11:59:57;13.93;;;3.67;;
32323;SDS011;25666;44.350;9.222;2023-03-31T12:05:14;13.85;;;4.07;;
32323;SDS011;25666;44.350;9.222;2023-03-31T12:13:00;8.90;;;3.63;;
32323;SDS011;25666;44.350;9.222;2023-03-31T12:15:38;8.25;;;3.20;;
32323;SDS011;25666;44.350;9.222;2023-03-31T12:20:41;10.75;;;3.67;;
32323;SDS011;25666;44.350;9.222;2023-03-31T12:23:17;20.38;;;4.28;;
32323;SDS011;25666;44.350;9.222;2023-03-31T12:28:17;11.37;;;4.57;;
32323;SDS011;25666;44.350;9.222;2023-03-31T12:30:44;16.38;;;3.88;;
32323;SDS011;25666;44.350;9.222;2023-03-31T12:33:19;12.60;;;5.60;;
32323;SDS011;25666;44.350;9.222;2023-03-31T12:49:32;11.02;;;3.30;;
32323;SDS011;25666;44.350;9.222;2023-03-31T12:52:21;9.93;;;3.13;;
32323;SDS011;25666;44.350;9.222;2023-03-31T12:55:15;9.30;;;3.40;;
32323;SDS011;25666;44.350;9.222;2023-03-31T13:06:03;15.02;;;3.95;;
32323;SDS011;25666;44.350;9.222;2023-03-31T13:14:03;12.68;;;4.03;;
32323;SDS011;25666;44.350;9.222;2023-03-31T13:16:49;12.23;;;4.30;;
32323;SDS011;25666;44.350;9.222;2023-03-31T13:22:03;9.65;;;3.55;;
32323;SDS011;25666;44.350;9.222;2023-03-31T13:24:30;16.58;;;4.65;;
32323;SDS011;25666;44.350;9.222;2023-03-31T13:26:57;14.77;;;4.28;;
32323;SDS011;25666;44.350;9.222;2023-03-31T13:29:43;10.15;;;3.42;;
32323;SDS011;25666;44.350;9.222;2023-03-31T13:35:13;15.98;;;4.05;;
32323;SDS011;25666;44.350;9.222;2023-03-31T13:49:00;8.98;;;2.88;;
32323;SDS011;25666;44.350;9.222;2023-03-31T13:51:49;5.35;;;2.60;;
32323;SDS011;25666;44.350;9.222;2023-03-31T13:56:54;8.55;;;3.10;;
32323;SDS011;25666;44.350;9.222;2023-03-31T14:07:49;5.13;;;3.15;;
32323;SDS011;25666;44.350;9.222;2023-03-31T14:10:27;5.93;;;3.00;;
32323;SDS011;25666;44.350;9.222;2023-03-31T14:13:03;8.38;;;3.45;;
32323;SDS011;25666;44.350;9.222;2023-03-31T14:15:40;6.80;;;3.20;;
32323;SDS011;25666;44.350;9.222;2023-03-31T14:18:14;14.40;;;3.97;;
32323;SDS011;25666;44.350;9.222;2023-03-31T14:26:29;15.32;;;3.08;;
32323;SDS011;25666;44.350;9.222;2023-03-31T14:31:49;7.07;;;3.42;;
32323;SDS011;25666;44.350;9.222;2023-03-31T14:37:12;12.55;;;3.95;;
32323;SDS011;25666;44.350;9.222;2023-03-31T14:39:46;11.30;;;4.27;;
32323;SDS011;25666;44.350;9.222;2023-03-31T14:42:15;9.40;;;3.75;;
32323;SDS011;25666;44.350;9.222;2023-03-31T14:44:44;7.45;;;3.17;;
32323;SDS011;25666;44.350;9.222;2023-03-31T14:47:19;10.13;;;3.53;;
32323;SDS011;25666;44.350;9.222;2023-03-31T14:49:47;14.35;;;3.92;;
32323;SDS011;25666;44.350;9.222;2023-03-31T14:52:30;10.35;;;4.10;;
32323;SDS011;25666;44.350;9.222;2023-03-31T14:54:57;11.18;;;3.75;;
32323;SDS011;25666;44.350;9.222;2023-03-31T14:57:27;11.32;;;4.10;;
32323;SDS011;25666;44.350;9.222;2023-03-31T14:59:57;16.02;;;5.38;;
32323;SDS011;25666;44.350;9.222;2023-03-31T15:02:36;10.68;;;5.78;;
32323;SDS011;25666;44.350;9.222;2023-03-31T15:05:07;14.65;;;4.80;;
32323;SDS011;25666;44.350;9.222;2023-03-31T15:07:35;16.27;;;6.43;;
32323;SDS011;25666;44.350;9.222;2023-03-31T15:10:02;26.52;;;6.43;;
32323;SDS011;25666;44.350;9.222;2023-03-31T15:12:29;11.93;;;4.63;;
32323;SDS011;25666;44.350;9.222;2023-03-31T15:17:52;8.73;;;3.50;;
32323;SDS011;25666;44.350;9.222;2023-03-31T15:20:20;20.00;;;4.32;;
32323;SDS011;25666;44.350;9.222;2023-03-31T15:22:56;6.70;;;3.60;;
32323;SDS011;25666;44.350;9.222;2023-03-31T15:25:33;8.45;;;4.03;;
32323;SDS011;25666;44.350;9.222;2023-03-31T15:28:05;12.90;;;3.67;;
32323;SDS011;25666;44.350;9.222;2023-03-31T15:30:32;9.23;;;3.38;;
32323;SDS011;25666;44.350;9.222;2023-03-31T15:32:58;11.45;;;3.78;;
32323;SDS011;25666;44.350;9.222;2023-03-31T15:35:26;8.10;;;3.60;;
32323;SDS011;25666;44.350;9.222;2023-03-31T15:37:56;10.23;;;3.80;;
32323;SDS011;25666;44.350;9.222;2023-03-31T15:40:28;12.80;;;3.72;;
32323;SDS011;25666;44.350;9.222;2023-03-31T15:43:11;14.35;;;4.03;;
32323;SDS011;25666;44.350;9.222;2023-03-31T15:45:44;12.88;;;3.42;;
32323;SDS011;25666;44.350;9.222;2023-03-31T15:48:19;10.17;;;4.63;;
32323;SDS011;25666;44.350;9.222;2023-03-31T15:50:47;13.48;;;3.85;;
32323;SDS011;25666;44.350;9.222;2023-03-31T15:53:21;14.02;;;2.97;;
32323;SDS011;25666;44.350;9.222;2023-03-31T15:55:52;7.30;;;3.35;;
32323;SDS011;25666;44.350;9.222;2023-03-31T15:58:19;9.93;;;4.07;;
32323;SDS011;25666;44.350;9.222;2023-03-31T16:01:10;10.70;;;4.55;;
32323;SDS011;25666;44.350;9.222;2023-03-31T16:03:39;12.38;;;3.85;;
32323;SDS011;25666;44.350;9.222;2023-03-31T16:09:07;15.53;;;3.77;;
32323;SDS011;25666;44.350;9.222;2023-03-31T16:14:28;15.15;;;4.07;;
32323;SDS011;25666;44.350;9.222;2023-03-31T16:17:00;19.58;;;6.40;;
32323;SDS011;25666;44.350;9.222;2023-03-31T16:19:30;8.23;;;4.25;;
32323;SDS011;25666;44.350;9.222;2023-03-31T16:22:05;12.80;;;4.20;;
32323;SDS011;25666;44.350;9.222;2023-03-31T16:24:31;12.60;;;4.57;;
32323;SDS011;25666;44.350;9.222;2023-03-31T16:26:59;8.68;;;4.25;;
32323;SDS011;25666;44.350;9.222;2023-03-31T16:29:30;16.77;;;4.87;;
32323;SDS011;25666;44.350;9.222;2023-03-31T16:32:13;12.63;;;4.35;;
32323;SDS011;25666;44.350;9.222;2023-03-31T16:35:00;12.68;;;4.30;;
32323;SDS011;25666;44.350;9.222;2023-03-31T16:37:27;20.20;;;5.15;;
32323;SDS011;25666;44.350;9.222;2023-03-31T16:39:52;8.82;;;3.55;;
32323;SDS011;25666;44.350;9.222;2023-03-31T16:42:18;9.18;;;3.80;;
32323;SDS011;25666;44.350;9.222;2023-03-31T16:44:44;15.50;;;4.50;;
32323;SDS011;25666;44.350;9.222;2023-03-31T16:47:13;8.80;;;4.32;;
32323;SDS011;25666;44.350;9.222;2023-03-31T16:49:39;10.23;;;4.25;;
32323;SDS011;25666;44.350;9.222;2023-03-31T16:52:05;6.70;;;3.95;;
32323;SDS011;25666;44.350;9.222;2023-03-31T16:54:32;13.98;;;4.28;;
32323;SDS011;25666;44.350;9.222;2023-03-31T16:56:58;17.40;;;4.70;;
32323;SDS011;25666;44.350;9.222;2023-03-31T16:59:23;20.65;;;4.95;;
32323;SDS011;25666;44.350;9.222;2023-03-31T17:01:49;10.90;;;3.90;;
32323;SDS011;25666;44.350;9.222;2023-03-31T17:04:16;5.75;;;3.35;;
32323;SDS011;25666;44.350;9.222;2023-03-31T17:06:41;16.38;;;4.07;;
32323;SDS011;25666;44.350;9.222;2023-03-31T17:09:07;14.93;;;4.90;;
32323;SDS011;25666;44.350;9.222;2023-03-31T17:11:33;8.45;;;4.05;;
32323;SDS011;25666;44.350;9.222;2023-03-31T17:13:59;8.70;;;4.43;;
32323;SDS011;25666;44.350;9.222;2023-03-31T17:16:25;12.55;;;5.07;;
32323;SDS011;25666;44.350;9.222;2023-03-31T17:18:50;13.98;;;4.85;;
32323;SDS011;25666;44.350;9.222;2023-03-31T17:21:17;18.95;;;5.90;;
32323;SDS011;25666;44.350;9.222;2023-03-31T17:23:43;10.82;;;4.93;;
32323;SDS011;25666;44.350;9.222;2023-03-31T17:26:11;13.60;;;5.85;;
32323;SDS011;25666;44.350;9.222;2023-03-31T17:28:37;13.48;;;5.20;;
32323;SDS011;25666;44.350;9.222;2023-03-31T17:31:14;15.35;;;4.88;;
32323;SDS011;25666;44.350;9.222;2023-03-31T17:33:41;14.70;;;4.95;;
32323;SDS011;25666;44.350;9.222;2023-03-31T17:36:08;15.50;;;5.13;;
32323;SDS011;25666;44.350;9.222;2023-03-31T17:38:34;19.40;;;6.82;;
32323;SDS011;25666;44.350;9.222;2023-03-31T17:41:03;12.57;;;6.88;;
32323;SDS011;25666;44.350;9.222;2023-03-31T17:43:29;18.52;;;6.28;;
32323;SDS011;25666;44.350;9.222;2023-03-31T17:45:59;16.02;;;6.47;;
32323;SDS011;25666;44.350;9.222;2023-03-31T17:48:36;16.88;;;7.18;;
32323;SDS011;25666;44.350;9.222;2023-03-31T17:51:06;16.67;;;8.00;;
32323;SDS011;25666;44.350;9.222;2023-03-31T17:53:33;21.75;;;7.32;;
32323;SDS011;25666;44.350;9.222;2023-03-31T17:56:00;20.25;;;6.72;;
32323;SDS011;25666;44.350;9.222;2023-03-31T17:58:26;21.05;;;7.22;;
32323;SDS011;25666;44.350;9.222;2023-03-31T18:00:52;15.55;;;6.25;;